Time;durP1;ratioP1;P1;durP2;ratioP2;P2;SDS_P1;SDS_P2;PMS_P1;PMS_P2;Temp;Humidity;BMP_temperature;BMP_pressure;BME280_temperature;BME280_humidity;BME280_pressure;Samples;Min_cycle;Max_cycle;Signal;HPM_P1;HPM_P2
2022/10/10 00:01:28;;;;;;;4.90;2.45;;;9.40;94.90;;;;;;4989202;28;20169;-38
2022/10/10 00:03:54;;;;;;;7.93;2.75;;;9.40;94.80;;;;;;4995568;28;20069;-37
2022/10/10 00:06:21;;;;;;;6.07;2.53;;;9.40;94.90;;;;;;4991627;28;20460;-37
2022/10/10 00:08:47;;;;;;;8.30;2.90;;;9.40;94.90;;;;;;4991486;28;20110;-36
2022/10/10 00:11:14;;;;;;;5.93;2.60;;;9.40;95.00;;;;;;4994382;28;20045;-38
2022/10/10 00:13:41;;;;;;;5.88;2.40;;;9.30;94.90;;;;;;5001419;28;20199;-37
2022/10/10 00:16:07;;;;;;;8.68;2.97;;;9.30;94.90;;;;;;4995815;28;20047;-36
2022/10/10 00:18:34;;;;;;;8.07;2.75;;;9.30;95.00;;;;;;4991452;28;20065;-36
2022/10/10 00:20:59;;;;;;;7.22;2.55;;;9.30;94.90;;;;;;4973199;28;20045;-37
2022/10/10 00:23:25;;;;;;;5.18;2.70;;;9.30;95.00;;;;;;4991315;28;20043;-41
2022/10/10 00:25:51;;;;;;;5.55;2.70;;;9.30;95.10;;;;;;4995663;28;20165;-35
2022/10/10 00:28:18;;;;;;;4.70;2.25;;;9.30;95.10;;;;;;4992657;28;20042;-36
2022/10/10 00:30:44;;;;;;;7.70;2.65;;;9.30;95.10;;;;;;4994301;28;20408;-36
2022/10/10 00:33:10;;;;;;;4.75;2.03;;;9.30;95.10;;;;;;4994375;28;20069;-36
2022/10/10 00:35:35;;;;;;;5.53;2.60;;;9.30;95.10;;;;;;4992127;28;20038;-36
2022/10/10 00:38:02;;;;;;;5.88;2.45;;;9.30;95.20;;;;;;4990835;28;20406;-36
2022/10/10 00:40:28;;;;;;;5.20;2.65;;;9.30;95.00;;;;;;4991053;28;20060;-36
2022/10/10 00:42:54;;;;;;;6.18;2.47;;;9.30;95.10;;;;;;4994378;28;20058;-38
2022/10/10 00:45:28;;;;;;;4.43;2.40;;;9.30;95.10;;;;;;4991527;28;20046;-41
2022/10/10 00:48:05;;;;;;;5.15;2.17;;;9.30;95.20;;;;;;4989372;28;20051;-36
2022/10/10 00:50:32;;;;;;;4.72;2.47;;;9.30;95.20;;;;;;4990630;28;20034;-36
2022/10/10 00:52:59;;;;;;;4.82;2.25;;;9.30;95.00;;;;;;4994238;28;20033;-36
2022/10/10 00:55:25;;;;;;;5.38;2.45;;;9.30;95.20;;;;;;4995355;28;20045;-36
2022/10/10 00:57:51;;;;;;;4.28;2.42;;;9.30;95.20;;;;;;4992844;28;20042;-36
2022/10/10 01:00:17;;;;;;;3.70;2.30;;;9.30;95.20;;;;;;4990291;28;20073;-37
2022/10/10 01:02:43;;;;;;;4.53;2.58;;;9.30;95.10;;;;;;4997691;28;20049;-36
2022/10/10 01:05:09;;;;;;;5.20;2.40;;;9.30;95.20;;;;;;4988588;28;20043;-36
2022/10/10 01:07:35;;;;;;;4.43;2.40;;;9.20;95.20;;;;;;4993271;28;20092;-37
2022/10/10 01:10:21;;;;;;;4.85;2.20;;;9.20;95.20;;;;;;4994094;28;20102;-36
2022/10/10 01:12:50;;;;;;;4.55;2.38;;;9.20;95.50;;;;;;4989071;28;20495;-38
2022/10/10 01:15:22;;;;;;;6.55;2.30;;;9.20;95.30;;;;;;4989827;28;20069;-36
2022/10/10 01:17:57;;;;;;;;;;;9.20;95.40;;;;;;4995364;28;20112;-36
2022/10/10 01:20:27;;;;;;;5.13;2.17;;;9.20;96.30;;;;;;4998925;28;19917;-36
2022/10/10 01:23:37;;;;;;;4.68;2.20;;;9.10;95.50;;;;;;4993039;28;20076;-36
2022/10/10 01:26:16;;;;;;;4.85;2.40;;;9.10;95.90;;;;;;4991124;28;20112;-36
2022/10/10 01:28:58;;;;;;;3.60;1.85;;;9.10;95.70;;;;;;4991426;28;20129;-36
2022/10/10 01:31:25;;;;;;;4.20;2.20;;;9.10;95.70;;;;;;4986622;28;20053;-36
2022/10/10 01:34:04;;;;;;;4.18;2.13;;;9.00;95.60;;;;;;4994011;28;20503;-36
2022/10/10 01:36:39;;;;;;;3.85;2.17;;;9.00;95.80;;;;;;4987754;28;20042;-36
2022/10/10 01:39:30;;;;;;;5.45;2.42;;;9.00;95.70;;;;;;4993093;28;20038;-36
2022/10/10 01:42:02;;;;;;;6.45;2.35;;;9.00;96.00;;;;;;4989855;28;20053;-36
2022/10/10 01:44:27;;;;;;;5.22;2.70;;;9.00;96.50;;;;;;4989304;28;20046;-36
2022/10/10 01:46:53;;;;;;;5.55;2.38;;;8.90;96.00;;;;;;4991783;28;20703;-36
2022/10/10 01:49:25;;;;;;;6.53;2.67;;;8.90;96.00;;;;;;4989948;28;20038;-35
2022/10/10 01:52:16;;;;;;;6.28;3.17;;;8.90;96.10;;;;;;4994637;28;20552;-38
2022/10/10 01:55:16;;;;;;;4.63;2.22;;;8.90;96.30;;;;;;4988975;28;20046;-38
2022/10/10 01:58:17;;;;;;;4.10;2.15;;;8.80;96.50;;;;;;4988030;28;20125;-36
2022/10/10 02:00:58;;;;;;;5.00;2.88;;;8.80;96.70;;;;;;4984181;28;20046;-36
2022/10/10 02:03:34;;;;;;;4.85;2.63;;;8.80;96.30;;;;;;4998949;28;20049;-36
2022/10/10 02:06:24;;;;;;;7.28;2.92;;;8.80;96.40;;;;;;4990663;28;20487;-38
2022/10/10 02:08:52;;;;;;;5.32;3.20;;;8.80;96.70;;;;;;4988305;28;20097;-36
2022/10/10 02:11:18;;;;;;;4.40;2.15;;;8.80;96.50;;;;;;4984840;28;20038;-37
2022/10/10 02:13:49;;;;;;;7.60;2.55;;;8.80;96.60;;;;;;4982733;28;20046;-37
2022/10/10 02:16:20;;;;;;;4.78;2.70;;;8.80;96.70;;;;;;4985544;28;20092;-36
2022/10/10 02:18:49;;;;;;;6.82;2.92;;;8.80;96.70;;;;;;4989094;28;20099;-37
2022/10/10 02:21:16;;;;;;;6.07;2.72;;;8.80;96.70;;;;;;4994798;28;20407;-36
2022/10/10 02:23:44;;;;;;;6.63;2.67;;;8.80;96.80;;;;;;4989429;28;20042;-36
2022/10/10 02:26:14;;;;;;;5.03;2.35;;;8.80;96.80;;;;;;4989497;28;20498;-36
2022/10/10 02:29:05;;;;;;;7.90;2.63;;;8.70;96.90;;;;;;4990625;28;20046;-36
2022/10/10 02:31:40;;;;;;;5.10;2.63;;;8.80;97.20;;;;;;4989053;28;20176;-36
2022/10/10 02:34:12;;;;;;;5.53;2.50;;;8.80;97.30;;;;;;4993676;28;20034;-37
2022/10/10 02:36:40;;;;;;;6.57;3.10;;;8.80;97.10;;;;;;4988504;28;20034;-37
2022/10/10 02:39:07;;;;;;;5.93;3.00;;;8.70;97.10;;;;;;4993200;28;20066;-37
2022/10/10 02:41:35;;;;;;;5.20;2.72;;;8.70;97.10;;;;;;4989903;28;20400;-36
2022/10/10 02:44:00;;;;;;;4.50;2.30;;;8.70;97.20;;;;;;4990384;28;20208;-36
2022/10/10 02:46:26;;;;;;;5.38;2.78;;;8.70;97.20;;;;;;4988560;28;20125;-38
2022/10/10 02:48:52;;;;;;;6.72;2.60;;;8.70;97.20;;;;;;4985337;28;20043;-36
2022/10/10 02:51:18;;;;;;;4.60;2.17;;;8.60;97.30;;;;;;4991939;28;20045;-38
2022/10/10 02:53:43;;;;;;;7.63;2.75;;;8.70;97.40;;;;;;4992300;28;20061;-36
2022/10/10 02:56:10;;;;;;;4.00;2.40;;;8.70;97.50;;;;;;4989247;28;20034;-36
2022/10/10 02:58:35;;;;;;;5.22;2.13;;;8.70;97.70;;;;;;4994873;28;20487;-36
2022/10/10 03:01:01;;;;;;;6.03;2.38;;;8.60;97.70;;;;;;4994492;28;20053;-36
2022/10/10 03:03:27;;;;;;;4.28;2.30;;;8.60;97.90;;;;;;4992444;28;20062;-36
2022/10/10 03:05:52;;;;;;;5.50;2.50;;;8.60;98.00;;;;;;4968960;28;20503;-36
2022/10/10 03:08:18;;;;;;;6.53;2.80;;;8.60;97.90;;;;;;4995693;28;20042;-36
2022/10/10 03:10:58;;;;;;;5.90;2.10;;;8.60;98.20;;;;;;4993250;28;20042;-38
2022/10/10 03:13:23;;;;;;;5.53;2.92;;;8.60;98.40;;;;;;4992516;28;20038;-38
2022/10/10 03:15:50;;;;;;;5.65;2.90;;;8.60;98.20;;;;;;4988238;28;20435;-37
2022/10/10 03:18:15;;;;;;;6.72;2.55;;;8.50;98.30;;;;;;4992221;28;20034;-36
2022/10/10 03:20:44;;;;;;;5.90;2.47;;;8.50;98.30;;;;;;4996355;28;20107;-38
2022/10/10 03:23:10;;;;;;;7.18;2.85;;;8.60;98.40;;;;;;4995831;28;20384;-38
2022/10/10 03:25:40;;;;;;;5.30;2.50;;;8.50;98.40;;;;;;4991809;28;20403;-36
2022/10/10 03:28:05;;;;;;;5.32;2.30;;;8.50;98.60;;;;;;4988426;28;20035;-36
2022/10/10 03:30:31;;;;;;;5.90;2.95;;;8.50;98.50;;;;;;4985375;28;20038;-37
2022/10/10 03:32:57;;;;;;;4.30;2.42;;;8.50;98.70;;;;;;4994519;28;20041;-36
2022/10/10 03:35:22;;;;;;;6.55;2.35;;;8.50;98.80;;;;;;4993736;28;20041;-36
2022/10/10 03:37:48;;;;;;;5.95;2.47;;;8.50;98.80;;;;;;4994320;28;20038;-36
2022/10/10 03:40:14;;;;;;;5.22;2.47;;;8.50;98.80;;;;;;4993937;28;20499;-37
2022/10/10 03:42:39;;;;;;;5.38;2.90;;;8.50;99.00;;;;;;4995932;28;20534;-36
2022/10/10 03:45:05;;;;;;;7.85;2.63;;;8.50;99.00;;;;;;4996602;28;20034;-36
2022/10/10 03:47:31;;;;;;;7.13;2.42;;;8.50;99.30;;;;;;4995136;28;20057;-36
2022/10/10 03:49:57;;;;;;;4.57;2.13;;;8.50;99.30;;;;;;4993145;28;20046;-37
2022/10/10 03:52:22;;;;;;;9.05;2.67;;;8.50;99.30;;;;;;4996949;28;20034;-36
2022/10/10 03:54:48;;;;;;;5.10;2.92;;;8.50;99.20;;;;;;4997487;28;20061;-36
2022/10/10 03:57:14;;;;;;;8.95;3.13;;;8.40;99.30;;;;;;4997596;28;20046;-37
2022/10/10 03:59:39;;;;;;;5.00;2.70;;;8.50;99.30;;;;;;4992723;28;20575;-36
2022/10/10 04:02:05;;;;;;;7.50;2.92;;;8.40;99.80;;;;;;4994910;28;20068;-36
2022/10/10 04:04:30;;;;;;;7.38;3.30;;;8.40;99.60;;;;;;4978202;28;20034;-36
2022/10/10 04:06:56;;;;;;;3.80;2.25;;;8.40;99.80;;;;;;5000089;28;20050;-36
2022/10/10 04:09:22;;;;;;;5.22;2.80;;;8.40;99.90;;;;;;4996128;28;20034;-37
2022/10/10 04:11:47;;;;;;;7.13;3.33;;;8.40;99.90;;;;;;4992934;28;20042;-37
2022/10/10 04:14:13;;;;;;;7.97;3.03;;;8.40;99.90;;;;;;4992804;28;20041;-36
2022/10/10 04:16:39;;;;;;;5.97;2.53;;;8.40;99.90;;;;;;4990433;28;20053;-36
2022/10/10 04:19:04;;;;;;;6.63;3.28;;;8.40;99.80;;;;;;5000485;28;20408;-36
2022/10/10 04:21:30;;;;;;;5.75;3.50;;;8.40;99.90;;;;;;4997699;28;20046;-37
2022/10/10 04:23:56;;;;;;;6.45;3.47;;;8.40;99.90;;;;;;4991169;28;20403;-36
2022/10/10 04:26:22;;;;;;;8.52;3.25;;;8.40;99.90;;;;;;4993845;28;20543;-36
2022/10/10 04:28:47;;;;;;;6.30;2.75;;;8.30;99.90;;;;;;4992694;28;20061;-36
2022/10/10 04:31:13;;;;;;;6.45;2.63;;;8.30;99.90;;;;;;4991520;28;20040;-37
2022/10/10 04:33:39;;;;;;;3.97;2.38;;;8.30;99.90;;;;;;4991467;28;20089;-37
2022/10/10 04:36:04;;;;;;;5.88;3.00;;;8.30;99.90;;;;;;4991821;28;20490;-37
2022/10/10 04:38:30;;;;;;;8.25;2.90;;;8.30;99.90;;;;;;4989638;28;20078;-37
2022/10/10 04:40:56;;;;;;;6.40;3.00;;;8.20;99.90;;;;;;4992261;28;20113;-37
2022/10/10 04:43:21;;;;;;;7.25;3.15;;;8.20;99.90;;;;;;4991788;28;20198;-39
2022/10/10 04:45:47;;;;;;;5.35;2.60;;;8.20;99.90;;;;;;4992585;28;20450;-36
2022/10/10 04:48:13;;;;;;;4.68;2.65;;;8.20;99.90;;;;;;4989063;28;20442;-36
2022/10/10 04:50:39;;;;;;;5.78;2.83;;;8.20;99.90;;;;;;4998380;28;20049;-37
2022/10/10 04:53:05;;;;;;;5.93;3.28;;;8.20;99.90;;;;;;4992151;28;20053;-36
2022/10/10 04:55:30;;;;;;;6.45;3.20;;;8.10;99.90;;;;;;4994516;28;20045;-36
2022/10/10 04:57:56;;;;;;;5.00;2.60;;;8.10;99.90;;;;;;5002606;28;20042;-36
2022/10/10 05:00:22;;;;;;;7.63;3.33;;;8.10;99.90;;;;;;4989132;28;20510;-36
2022/10/10 05:02:47;;;;;;;5.63;3.40;;;8.10;99.90;;;;;;4988243;28;20498;-37
2022/10/10 05:05:13;;;;;;;7.22;3.08;;;8.10;99.90;;;;;;4990066;28;20082;-39
2022/10/10 05:07:39;;;;;;;6.80;2.70;;;8.10;99.90;;;;;;4989182;28;20038;-38
2022/10/10 05:10:05;;;;;;;5.60;3.17;;;8.10;99.90;;;;;;4989835;28;20037;-37
2022/10/10 05:12:31;;;;;;;6.88;3.10;;;8.10;99.90;;;;;;4985352;28;20034;-37
2022/10/10 05:14:57;;;;;;;7.53;3.25;;;8.10;99.90;;;;;;4988577;28;20038;-36
2022/10/10 05:17:23;;;;;;;6.03;3.20;;;8.00;99.90;;;;;;4990560;28;20093;-39
2022/10/10 05:19:48;;;;;;;7.05;3.33;;;8.10;99.90;;;;;;4984699;28;20045;-39
2022/10/10 05:22:14;;;;;;;6.45;2.53;;;8.00;99.90;;;;;;4988447;28;20082;-36
2022/10/10 05:24:40;;;;;;;6.30;2.60;;;8.00;99.90;;;;;;4993802;28;20046;-38
2022/10/10 05:27:05;;;;;;;5.88;3.42;;;8.00;99.90;;;;;;4984564;28;20137;-36
2022/10/10 05:29:31;;;;;;;5.95;3.40;;;8.00;99.90;;;;;;4990047;28;20371;-36
2022/10/10 05:31:57;;;;;;;10.13;2.70;;;8.00;99.90;;;;;;4998562;28;20044;-37
2022/10/10 05:34:22;;;;;;;6.43;3.30;;;7.90;99.90;;;;;;4992379;28;20038;-37
2022/10/10 05:36:48;;;;;;;7.30;4.20;;;7.90;99.90;;;;;;4987946;28;20448;-37
2022/10/10 05:39:14;;;;;;;5.32;2.90;;;7.90;99.90;;;;;;4994174;28;20046;-37
2022/10/10 05:41:39;;;;;;;8.05;3.67;;;7.90;99.90;;;;;;4990021;28;20430;-37
2022/10/10 05:44:05;;;;;;;6.15;3.47;;;7.90;99.90;;;;;;4985552;28;20042;-37
2022/10/10 05:46:31;;;;;;;6.70;3.33;;;7.90;99.90;;;;;;4989595;28;20089;-37
2022/10/10 05:48:56;;;;;;;6.90;3.75;;;7.90;99.90;;;;;;4971169;28;20062;-37
2022/10/10 05:51:22;;;;;;;7.50;3.60;;;7.90;99.90;;;;;;4984408;28;20048;-37
2022/10/10 05:53:48;;;;;;;6.13;3.58;;;7.90;99.90;;;;;;4988196;28;20438;-37
2022/10/10 05:56:15;;;;;;;7.07;3.30;;;7.90;99.90;;;;;;4994355;28;20098;-37
2022/10/10 05:58:42;;;;;;;7.57;2.90;;;7.90;99.90;;;;;;4989620;28;20038;-43
2022/10/10 06:01:08;;;;;;;6.40;3.13;;;7.80;99.90;;;;;;4983696;28;20052;-41
2022/10/10 06:03:36;;;;;;;8.43;3.83;;;7.80;99.90;;;;;;4989885;28;20093;-42
2022/10/10 06:06:03;;;;;;;7.78;3.90;;;7.80;99.90;;;;;;4990512;28;20069;-41
2022/10/10 06:08:30;;;;;;;8.10;3.05;;;7.80;99.90;;;;;;4990052;28;20487;-42
2022/10/10 06:11:06;;;;;;;6.05;3.33;;;7.80;99.90;;;;;;4987781;28;20442;-42
2022/10/10 06:13:33;;;;;;;8.15;4.07;;;7.80;99.90;;;;;;4987827;28;20130;-43
2022/10/10 06:15:58;;;;;;;8.27;3.45;;;7.80;99.90;;;;;;4988320;28;20048;-35
2022/10/10 06:18:24;;;;;;;7.75;3.33;;;7.80;99.90;;;;;;4989166;28;20427;-36
2022/10/10 06:20:50;;;;;;;6.53;3.45;;;7.80;99.90;;;;;;4990964;28;20415;-36
2022/10/10 06:23:17;;;;;;;8.63;3.75;;;7.80;99.90;;;;;;4991040;28;20042;-36
2022/10/10 06:25:42;;;;;;;7.35;3.03;;;7.80;99.90;;;;;;4992795;28;20053;-36
2022/10/10 06:28:09;;;;;;;8.05;3.25;;;7.80;99.90;;;;;;4992474;28;20047;-36
2022/10/10 06:30:42;;;;;;;5.45;2.95;;;7.90;99.90;;;;;;4995241;28;20088;-37
2022/10/10 06:33:08;;;;;;;7.22;3.83;;;7.90;99.90;;;;;;4990927;28;20046;-36
2022/10/10 06:35:39;;;;;;;6.25;2.92;;;7.90;99.90;;;;;;4988013;28;20105;-36
2022/10/10 06:38:04;;;;;;;7.82;3.80;;;7.90;99.90;;;;;;4981004;28;20156;-38
2022/10/10 06:40:31;;;;;;;8.02;4.22;;;7.90;99.90;;;;;;4983297;28;20486;-36
2022/10/10 06:42:56;;;;;;;9.18;3.92;;;8.00;99.90;;;;;;4990774;28;20372;-42
2022/10/10 06:45:23;;;;;;;7.22;3.80;;;8.00;99.90;;;;;;4987709;28;20056;-42
2022/10/10 06:47:49;;;;;;;7.45;3.35;;;8.00;99.90;;;;;;4988424;28;20597;-36
2022/10/10 06:50:15;;;;;;;7.50;4.00;;;8.00;99.90;;;;;;4991746;28;20093;-36
2022/10/10 06:52:40;;;;;;;6.88;3.38;;;8.10;99.90;;;;;;4995958;28;20121;-35
2022/10/10 06:55:07;;;;;;;6.82;3.75;;;8.10;99.90;;;;;;4974412;28;20038;-43
2022/10/10 06:57:32;;;;;;;7.10;3.35;;;8.10;99.90;;;;;;4992410;28;20487;-35
2022/10/10 06:59:58;;;;;;;6.45;3.40;;;8.10;99.90;;;;;;4990704;28;20045;-36
2022/10/10 07:02:23;;;;;;;7.45;3.33;;;8.10;99.90;;;;;;5001172;28;20502;-35
2022/10/10 07:04:49;;;;;;;10.23;3.90;;;8.20;99.90;;;;;;5001414;28;20435;-36
2022/10/10 07:07:15;;;;;;;6.80;3.95;;;8.20;99.90;;;;;;4993020;28;20133;-35
2022/10/10 07:09:41;;;;;;;7.30;3.90;;;8.20;99.90;;;;;;4989590;28;20038;-35
2022/10/10 07:12:07;;;;;;;7.80;3.70;;;8.30;99.90;;;;;;4970813;28;20095;-36
2022/10/10 07:14:32;;;;;;;8.73;3.85;;;8.30;99.90;;;;;;4986350;28;20039;-35
2022/10/10 07:16:58;;;;;;;7.72;3.78;;;8.40;99.90;;;;;;4979573;28;20097;-37
2022/10/10 07:19:24;;;;;;;8.13;3.67;;;8.40;99.90;;;;;;4990970;28;20098;-35
2022/10/10 07:21:50;;;;;;;6.22;3.45;;;8.40;99.90;;;;;;4996931;28;20117;-36
2022/10/10 07:24:16;;;;;;;6.82;4.03;;;8.40;99.90;;;;;;4996520;28;20030;-36
2022/10/10 07:26:42;;;;;;;6.65;3.50;;;8.50;99.90;;;;;;4994779;28;20032;-36
2022/10/10 07:29:07;;;;;;;7.93;3.72;;;8.50;99.90;;;;;;4995097;28;20096;-35
2022/10/10 07:31:33;;;;;;;7.72;3.65;;;8.60;99.90;;;;;;4995489;28;20450;-35
2022/10/10 07:33:59;;;;;;;7.15;3.75;;;8.70;99.90;;;;;;4993397;28;20042;-36
2022/10/10 07:36:24;;;;;;;11.35;3.78;;;8.70;99.90;;;;;;5000360;28;20042;-42
2022/10/10 07:38:51;;;;;;;15.55;5.13;;;8.80;99.90;;;;;;4994386;28;20038;-45
2022/10/10 07:41:18;;;;;;;6.75;3.97;;;8.90;99.90;;;;;;4996242;28;20074;-35
2022/10/10 07:43:44;;;;;;;8.10;3.65;;;9.00;99.90;;;;;;4999438;28;20085;-36
2022/10/10 07:46:16;;;;;;;8.68;3.53;;;9.10;99.90;;;;;;4998758;28;20071;-36
2022/10/10 07:48:42;;;;;;;7.50;3.55;;;9.10;99.90;;;;;;4994036;28;20038;-35
2022/10/10 07:51:08;;;;;;;7.15;3.78;;;9.20;99.90;;;;;;4990294;28;20443;-36
2022/10/10 07:53:34;;;;;;;6.88;3.55;;;9.30;99.90;;;;;;4992288;28;20537;-36
2022/10/10 07:56:06;;;;;;;10.00;3.95;;;9.40;99.90;;;;;;4991270;28;20038;-36
2022/10/10 07:58:33;;;;;;;6.28;3.47;;;9.50;99.90;;;;;;4995172;28;20042;-35
2022/10/10 08:01:07;;;;;;;11.00;4.20;;;9.60;99.90;;;;;;4996681;28;20044;-35
2022/10/10 08:03:34;;;;;;;6.20;3.25;;;9.70;99.90;;;;;;4992246;28;20549;-36
2022/10/10 08:06:04;;;;;;;8.48;4.15;;;9.80;99.90;;;;;;4990548;28;20121;-35
2022/10/10 08:08:29;;;;;;;8.93;3.92;;;9.90;99.90;;;;;;4992846;28;20046;-36
2022/10/10 08:10:56;;;;;;;7.20;3.70;;;10.10;99.90;;;;;;4993473;28;20490;-36
2022/10/10 08:13:22;;;;;;;5.90;3.58;;;10.20;99.90;;;;;;4992891;28;20038;-36
2022/10/10 08:15:52;;;;;;;8.10;3.83;;;10.40;99.90;;;;;;4992271;28;20044;-36
2022/10/10 08:18:18;;;;;;;7.18;3.70;;;10.50;99.90;;;;;;4988721;28;20125;-36
2022/10/10 08:20:44;;;;;;;8.98;4.20;;;10.70;99.90;;;;;;4973357;28;20057;-36
2022/10/10 08:23:10;;;;;;;6.75;3.50;;;10.80;99.90;;;;;;4992077;28;20034;-37
2022/10/10 08:25:35;;;;;;;8.27;3.75;;;10.90;99.90;;;;;;4992672;28;20133;-36
2022/10/10 08:28:01;;;;;;;6.40;3.13;;;10.90;99.90;;;;;;4991750;28;20109;-35
2022/10/10 08:30:27;;;;;;;8.15;3.25;;;11.10;99.90;;;;;;4991906;28;20026;-35
2022/10/10 08:32:52;;;;;;;6.85;3.80;;;11.20;99.90;;;;;;4990303;28;20136;-36
2022/10/10 08:35:18;;;;;;;9.23;4.05;;;11.40;99.90;;;;;;4992452;28;20042;-35
2022/10/10 08:37:44;;;;;;;8.07;3.88;;;11.50;99.90;;;;;;4992978;28;20046;-35
2022/10/10 08:40:15;;;;;;;8.38;3.90;;;11.60;99.90;;;;;;4989837;28;20415;-36
2022/10/10 08:42:45;;;;;;;6.78;3.60;;;11.80;99.90;;;;;;4991574;28;20058;-37
2022/10/10 08:45:19;;;;;;;8.52;3.88;;;11.90;99.90;;;;;;4974136;28;20046;-36
2022/10/10 08:48:09;;;;;;;10.80;4.13;;;11.90;99.90;;;;;;4991877;28;20060;-36
2022/10/10 08:50:41;;;;;;;7.75;3.53;;;12.00;99.90;;;;;;4970885;28;20042;-35
2022/10/10 08:53:37;;;;;;;6.45;3.42;;;12.10;99.90;;;;;;4974405;28;20530;-36
2022/10/10 08:56:12;;;;;;;7.35;3.80;;;12.20;99.90;;;;;;4991116;28;20053;-36
2022/10/10 08:59:08;;;;;;;9.82;3.63;;;12.30;99.90;;;;;;4991625;28;20407;-37
2022/10/10 09:01:37;;;;;;;9.60;4.07;;;12.30;99.90;;;;;;4984553;28;20797;-36
2022/10/10 09:04:05;;;;;;;5.50;3.22;;;12.30;99.90;;;;;;4991531;28;20050;-36
2022/10/10 09:07:03;;;;;;;8.13;4.57;;;12.40;99.90;;;;;;4990786;28;20443;-35
2022/10/10 09:09:32;;;;;;;7.22;3.90;;;12.60;99.90;;;;;;4985392;28;20042;-36
2022/10/10 09:12:14;;;;;;;7.35;3.60;;;12.80;99.90;;;;;;4991672;28;20042;-35
2022/10/10 09:15:16;;;;;;;9.63;4.05;;;13.00;99.90;;;;;;4990500;28;20560;-36
2022/10/10 09:17:46;;;;;;;7.38;3.75;;;13.20;99.90;;;;;;4991314;28;20046;-36
2022/10/10 09:20:17;;;;;;;10.63;4.38;;;13.30;99.90;;;;;;4991489;28;20049;-36
2022/10/10 09:23:04;;;;;;;8.98;4.00;;;13.40;99.90;;;;;;4988261;28;20054;-36
2022/10/10 09:25:35;;;;;;;6.43;3.25;;;13.50;99.90;;;;;;4992178;28;20050;-36
2022/10/10 09:28:15;;;;;;;6.40;3.40;;;13.50;99.90;;;;;;4983567;28;20042;-36
2022/10/10 09:30:48;;;;;;;9.98;3.90;;;13.70;99.90;;;;;;4989779;28;20047;-37
2022/10/10 09:33:32;;;;;;;7.70;3.55;;;13.70;99.90;;;;;;4989894;28;20042;-37
2022/10/10 09:36:04;;;;;;;7.63;3.03;;;13.80;99.80;;;;;;4993670;28;20557;-36
2022/10/10 09:38:36;;;;;;;7.47;3.58;;;13.80;99.90;;;;;;4990449;28;20155;-36
2022/10/10 09:41:07;;;;;;;12.35;4.07;;;13.80;99.90;;;;;;4990258;28;20038;-36
2022/10/10 09:43:34;;;;;;;6.57;4.38;;;13.90;99.70;;;;;;4990795;28;20078;-36
2022/10/10 09:46:00;;;;;;;5.93;3.42;;;13.90;99.70;;;;;;4990606;28;20038;-36
2022/10/10 09:48:38;;;;;;;7.13;3.90;;;13.90;99.90;;;;;;4989477;28;20050;-36
2022/10/10 09:51:07;;;;;;;8.32;3.80;;;14.00;99.90;;;;;;4989178;28;20427;-36
2022/10/10 09:53:33;;;;;;;7.20;3.58;;;14.10;99.80;;;;;;4984147;28;20153;-36
2022/10/10 09:55:59;;;;;;;10.57;3.90;;;14.20;99.60;;;;;;4995264;28;20549;-37
2022/10/10 09:58:41;;;;;;;6.65;3.72;;;14.20;99.60;;;;;;4989203;28;20050;-36
2022/10/10 10:01:20;;;;;;;8.00;3.70;;;14.30;99.60;;;;;;4992862;28;20042;-36
2022/10/10 10:04:15;;;;;;;8.20;3.38;;;14.40;99.10;;;;;;4980191;28;20139;-36
2022/10/10 10:06:50;;;;;;;5.72;3.55;;;14.40;98.70;;;;;;4986894;28;20093;-36
2022/10/10 10:09:22;;;;;;;5.72;3.38;;;14.40;98.70;;;;;;4989453;28;20096;-36
2022/10/10 10:11:55;;;;;;;7.68;3.72;;;14.40;98.80;;;;;;4997479;28;20105;-36
2022/10/10 10:14:34;;;;;;;9.45;3.80;;;14.40;98.90;;;;;;4983020;28;20125;-36
2022/10/10 10:17:19;;;;;;;8.23;4.20;;;14.60;98.80;;;;;;4985597;28;20042;-36
2022/10/10 10:19:46;;;;;;;6.65;3.50;;;14.80;98.70;;;;;;4985562;28;20046;-37
2022/10/10 10:22:23;;;;;;;6.97;3.72;;;14.90;98.20;;;;;;4983672;28;20496;-36
2022/10/10 10:24:48;;;;;;;9.00;4.03;;;14.90;97.40;;;;;;4989086;28;20046;-37
2022/10/10 10:27:23;;;;;;;7.53;3.80;;;14.90;97.30;;;;;;4986837;28;20038;-38
2022/10/10 10:29:52;;;;;;;6.22;3.60;;;14.90;97.10;;;;;;4983519;28;20038;-37
2022/10/10 10:32:29;;;;;;;6.72;3.40;;;14.80;97.30;;;;;;4989959;28;20100;-37
2022/10/10 10:35:18;;;;;;;9.57;4.20;;;14.80;97.80;;;;;;4991983;28;20050;-37
2022/10/10 10:38:14;;;;;;;11.57;4.32;;;14.70;98.10;;;;;;4988361;28;20133;-36
2022/10/10 10:41:14;;;;;;;6.60;3.78;;;14.70;98.30;;;;;;4986736;28;20072;-37
2022/10/10 10:43:57;;;;;;;9.20;3.40;;;14.60;98.40;;;;;;4981182;28;20046;-37
2022/10/10 10:46:22;;;;;;;;;;;14.50;98.20;;;;;;4983447;28;20048;-35
2022/10/10 10:48:54;;;;;;;7.75;3.25;;;14.50;98.80;;;;;;4995515;28;19922;-35
2022/10/10 10:51:44;;;;;;;7.82;4.07;;;14.50;98.50;;;;;;4985972;28;20042;-36
2022/10/10 10:54:16;;;;;;;7.40;4.18;;;14.50;98.70;;;;;;4985201;28;20589;-36
2022/10/10 10:57:22;;;;;;;7.05;4.10;;;14.60;98.70;;;;;;4986568;28;20072;-35
2022/10/10 11:00:03;;;;;;;10.40;4.20;;;14.70;99.20;;;;;;4978800;28;20206;-36
2022/10/10 11:02:38;;;;;;;11.85;4.25;;;14.80;98.60;;;;;;4990545;28;20038;-36
2022/10/10 11:05:33;;;;;;;8.40;4.13;;;14.90;98.60;;;;;;4986174;28;20049;-36
2022/10/10 11:08:16;;;;;;;6.55;3.30;;;14.90;98.50;;;;;;4986020;28;20045;-36
2022/10/10 11:11:18;;;;;;;8.55;3.67;;;14.90;98.30;;;;;;4986652;28;20034;-36
2022/10/10 11:14:08;;;;;;;17.15;3.70;;;14.90;98.40;;;;;;4983704;28;20046;-36
2022/10/10 11:16:40;;;;;;;8.60;3.70;;;14.80;98.80;;;;;;4987166;28;20038;-35
2022/10/10 11:19:43;;;;;;;8.43;3.50;;;14.70;98.90;;;;;;4987893;28;20049;-36
2022/10/10 11:22:19;;;;;;;7.13;3.58;;;14.60;99.60;;;;;;4913965;28;20078;-36
2022/10/10 11:25:17;;;;;;;7.30;3.65;;;14.50;99.90;;;;;;4993292;28;20387;-36
2022/10/10 11:27:51;;;;;;;7.28;3.92;;;14.50;99.90;;;;;;4967830;28;21496;-35
2022/10/10 11:30:24;;;;;;;7.20;3.58;;;14.50;99.90;;;;;;4984365;28;20053;-36
2022/10/10 11:32:57;;;;;;;8.43;3.72;;;14.60;99.90;;;;;;4990025;28;20056;-35
2022/10/10 11:35:50;;;;;;;5.63;3.53;;;14.60;99.90;;;;;;4996478;28;20038;-35
2022/10/10 11:38:40;;;;;;;7.90;3.90;;;14.60;99.90;;;;;;4994700;28;20042;-36
2022/10/10 11:41:37;;;;;;;10.60;4.03;;;14.60;99.90;;;;;;4985538;28;20046;-37
2022/10/10 11:44:16;;;;;;;10.52;3.63;;;14.60;99.90;;;;;;4968154;28;20042;-37
2022/10/10 11:47:00;;;;;;;9.45;4.70;;;14.60;99.90;;;;;;4985222;28;20054;-46
2022/10/10 11:49:44;;;;;;;7.45;3.90;;;14.60;99.90;;;;;;4988043;28;20046;-35
2022/10/10 11:52:25;;;;;;;8.07;3.47;;;14.60;99.90;;;;;;4988342;28;20518;-36
2022/10/10 11:55:00;;;;;;;7.93;4.03;;;14.50;99.90;;;;;;4987694;28;20502;-36
2022/10/10 11:57:59;;;;;;;14.18;3.97;;;14.50;99.90;;;;;;4989742;28;20050;-36
2022/10/10 12:00:27;;;;;;;8.35;4.30;;;14.50;99.90;;;;;;4991848;28;20660;-35
2022/10/10 12:02:56;;;;;;;6.97;3.80;;;14.50;99.90;;;;;;4992730;28;20077;-36
2022/10/10 12:05:23;;;;;;;9.35;3.97;;;14.50;99.90;;;;;;4983968;28;20542;-35
2022/10/10 12:08:15;;;;;;;8.85;4.28;;;14.50;99.90;;;;;;4978287;28;20570;-35
2022/10/10 12:10:53;;;;;;;14.60;5.30;;;14.40;99.90;;;;;;4994430;28;20057;-38
2022/10/10 12:13:31;;;;;;;7.82;4.18;;;14.40;99.90;;;;;;4982976;28;20113;-37
2022/10/10 12:16:04;;;;;;;13.93;5.13;;;14.40;99.90;;;;;;4983222;28;20498;-36
2022/10/10 12:18:53;;;;;;;9.43;4.38;;;14.30;99.90;;;;;;4994017;28;20136;-36
2022/10/10 12:21:24;;;;;;;8.82;4.75;;;14.20;99.90;;;;;;4991582;28;20074;-35
2022/10/10 12:23:59;;;;;;;9.23;4.78;;;14.20;99.90;;;;;;4991005;28;20833;-36
2022/10/10 12:26:45;;;;;;;11.93;5.15;;;14.10;99.90;;;;;;4992256;28;20541;-36
2022/10/10 12:29:10;;;;;;;8.95;4.97;;;14.00;99.90;;;;;;4992715;28;20046;-35
2022/10/10 12:31:38;;;;;;;11.10;5.25;;;14.00;99.90;;;;;;4993866;28;20502;-35
2022/10/10 12:34:35;;;;;;;13.45;5.20;;;14.00;99.90;;;;;;4994308;28;20142;-35
2022/10/10 12:37:28;;;;;;;8.70;4.50;;;13.90;99.90;;;;;;4987803;28;20125;-37
2022/10/10 12:40:21;;;;;;;11.20;5.53;;;13.90;99.90;;;;;;4972780;28;20133;-36
2022/10/10 12:42:46;;;;;;;9.73;5.40;;;13.80;99.90;;;;;;4992233;28;20070;-36
2022/10/10 12:45:30;;;;;;;14.45;5.93;;;13.80;99.90;;;;;;4993328;28;20495;-36
2022/10/10 12:48:01;;;;;;;11.65;4.90;;;13.80;99.90;;;;;;4957108;28;20108;-36
2022/10/10 12:50:31;;;;;;;10.27;5.95;;;13.80;99.90;;;;;;4990411;28;20199;-38
2022/10/10 12:53:03;;;;;;;10.32;5.22;;;13.70;99.90;;;;;;4990968;28;20091;-36
2022/10/10 12:55:38;;;;;;;13.95;6.63;;;13.80;99.90;;;;;;4973793;28;20049;-38
2022/10/10 12:58:08;;;;;;;11.07;5.70;;;13.70;99.90;;;;;;4992848;28;20045;-37
2022/10/10 13:00:42;;;;;;;12.32;6.53;;;13.70;99.90;;;;;;4995216;28;20092;-37
2022/10/10 13:03:25;;;;;;;11.95;5.75;;;13.70;99.90;;;;;;4995531;28;20060;-36
2022/10/10 13:05:52;;;;;;;12.82;6.68;;;13.70;99.90;;;;;;4994974;28;20042;-37
2022/10/10 13:08:23;;;;;;;10.48;6.30;;;13.70;99.90;;;;;;4989961;28;20051;-36
2022/10/10 13:11:11;;;;;;;12.52;6.43;;;13.70;99.90;;;;;;4987692;28;20046;-36
2022/10/10 13:13:38;;;;;;;12.48;6.80;;;13.70;99.90;;;;;;4992389;28;20053;-37
2022/10/10 13:16:13;;;;;;;16.88;6.28;;;13.70;99.90;;;;;;4983222;28;20042;-36